.
WxDataArchive / Data Records for 2007-07-17
2007-07-16 July 2007 2007-07-18

Data Records for Tuesday, 17 July 2007

Time	Temp	Chill	HIndex	Humid	Dewpt	 Wind 	HiWind	WindDir	Rain 	Barom 
-----	----	-----	------	-----	-----	------	------	-------	-----	----- 
00:00	70.6	70.6	70.6	66	58.7	0	0	---	0.00	29.959 
00:05	70.4	70.4	70.4	66	58.5	0	0	---	0.00	29.952 
00:10	70.4	70.4	70.4	68	59.3	0	0	---	0.00	29.947 
00:15	70.4	70.4	70.4	68	59.3	0	0	---	0.00	29.945 
00:20	70.4	70.4	70.4	68	59.3	0	0	---	0.00	29.943 
00:25	70.4	70.4	70.4	68	59.3	0	0	---	0.00	29.945 
00:30	70.4	70.4	70.4	67	58.9	0	0	---	0.00	29.945 
00:35	70.3	70.3	70.3	67	58.8	0	0	---	0.00	29.940 
00:40	70.4	70.4	70.4	67	58.9	0	0	---	0.00	29.940 
00:45	70.4	70.4	70.4	68	59.3	0	0	---	0.00	29.943 
00:50	70.4	70.4	70.4	68	59.3	0	0	---	0.00	29.939 
00:55	70.4	70.4	70.4	69	59.7	0	0	---	0.00	29.938 
01:00	70.4	70.4	70.4	69	59.7	0	0	---	0.00	29.937 
01:05	70.4	70.4	70.4	69	59.7	0	0	---	0.00	29.935 
01:10	70.3	70.3	70.3	69	59.6	0	0	---	0.00	29.935 
01:15	70.3	70.3	70.3	68	59.2	0	0	---	0.00	29.934 
01:20	70.3	70.3	70.3	69	59.6	0	0	---	0.00	29.933 
01:25	70.3	70.3	70.3	69	59.6	0	0	---	0.00	29.933 
01:30	70.3	70.3	70.3	70	60.0	0	0	---	0.00	29.932 
01:35	70.3	70.3	70.3	70	60.0	0	0	---	0.00	29.932 
01:40	70.1	70.1	70.1	69	59.4	0	0	---	0.00	29.934 
01:45	70.1	70.1	70.1	69	59.4	0	1	292	0.00	29.933 
01:50	70.3	70.3	70.3	67	58.8	0	0	---	0.00	29.934 
01:55	70.4	70.4	70.4	67	58.9	0	0	---	0.00	29.933 
02:00	70.4	70.4	70.4	66	58.5	0	1	292	0.00	29.932 
02:05	70.4	70.4	70.4	66	58.5	0	0	---	0.00	29.932 
02:10	70.6	70.6	70.6	66	58.7	0	1	292	0.00	29.928 
02:15	70.6	70.6	70.6	67	59.1	0	0	---	0.00	29.924 
02:20	70.4	70.4	70.4	67	58.9	0	0	---	0.00	29.923 
02:25	70.4	70.4	70.4	68	59.3	0	0	---	0.00	29.922 
02:30	70.3	70.3	70.3	69	59.6	0	0	---	0.00	29.919 
02:35	70.1	70.1	70.1	69	59.4	0	0	---	0.00	29.917 
02:40	70.1	70.1	70.1	70	59.8	0	0	---	0.00	29.912 
02:45	69.9	69.9	69.9	70	59.7	0	0	---	0.00	29.907 
02:50	69.6	69.6	69.6	70	59.4	0	0	---	0.00	29.905 
02:55	69.3	69.3	69.3	71	59.5	0	0	---	0.00	29.905 
03:00	68.9	68.9	68.9	71	59.1	0	0	---	0.00	29.901 
03:05	68.6	68.6	68.6	72	59.2	0	0	---	0.00	29.898 
03:10	68.3	68.3	68.3	72	58.9	0	0	---	0.00	29.896 
03:15	68.1	68.1	68.1	72	58.7	0	0	---	0.00	29.898 
03:20	67.8	67.8	67.8	73	58.8	0	0	---	0.00	29.900 
03:25	67.4	67.4	67.4	74	58.8	0	0	---	0.00	29.900 
03:30	67.3	67.3	67.3	75	59.1	0	0	---	0.00	29.899 
03:35	66.9	66.9	66.9	76	59.1	0	0	---	0.00	29.897 
03:40	66.6	66.6	66.6	76	58.8	0	0	---	0.00	29.896 
03:45	66.4	66.4	66.4	77	59.0	0	0	---	0.00	29.893 
03:50	66.3	66.3	66.3	78	59.2	0	0	---	0.00	29.891 
03:55	66.3	66.3	66.3	78	59.2	0	0	---	0.00	29.896 
04:00	66.3	66.3	66.3	79	59.6	0	0	---	0.00	29.894 
04:05	66.3	66.3	66.3	80	59.9	0	0	---	0.00	29.891 
04:10	66.4	66.4	66.4	80	60.0	0	0	---	0.00	29.890 
04:15	66.4	66.4	66.4	81	60.4	0	0	---	0.00	29.890 
04:20	66.4	66.4	66.4	81	60.4	0	0	---	0.00	29.892 
04:25	66.4	66.4	66.4	81	60.4	0	0	---	0.00	29.902 
04:30	66.8	66.8	66.8	80	60.4	0	0	---	0.00	29.904 
04:35	66.9	66.9	66.9	80	60.5	0	0	---	0.00	29.905 
04:40	67.1	67.1	67.1	79	60.4	0	0	---	0.00	29.906 
04:45	67.1	67.1	67.1	77	59.6	0	1	292	0.00	29.906 
04:50	67.3	67.3	67.3	76	59.5	0	0	---	0.00	29.907 
04:55	67.3	67.3	67.3	76	59.5	0	0	---	0.00	29.907 
05:00	67.4	67.4	67.4	76	59.6	0	1	292	0.00	29.907 
05:05	67.6	67.6	67.6	77	60.1	0	0	---	0.00	29.907 
05:10	67.6	67.6	67.6	76	59.8	0	0	---	0.00	29.904 
05:15	67.6	67.6	67.6	76	59.8	0	0	---	0.00	29.906 
05:20	67.6	67.6	67.6	77	60.1	0	0	---	0.00	29.905 
05:25	67.6	67.6	67.6	77	60.1	0	0	---	0.00	29.906 
05:30	67.4	67.4	67.4	77	59.9	0	0	---	0.00	29.907 
05:35	67.4	67.4	67.4	77	59.9	0	0	---	0.00	29.908 
05:40	67.4	67.4	67.4	78	60.3	0	0	---	0.00	29.910 
05:45	67.4	67.4	67.4	79	60.7	0	0	---	0.00	29.908 
05:50	67.4	67.4	67.4	79	60.7	0	0	---	0.00	29.907 
05:55	67.4	67.4	67.4	79	60.7	0	1	292	0.00	29.906 
06:00	67.4	67.4	67.4	79	60.7	0	1	292	0.00	29.904 
06:05	67.6	67.6	67.6	79	60.8	0	1	292	0.00	29.906 
06:10	67.8	67.8	67.8	79	61.0	0	1	292	0.00	29.904 
06:15	67.8	67.8	67.8	79	61.0	0	2	292	0.00	29.898 
06:20	67.9	67.9	67.9	78	60.8	1	2	292	0.00	29.894 
06:25	68.3	68.3	68.3	76	60.4	1	2	292	0.00	29.893 
06:30	68.4	68.4	68.4	75	60.2	0	1	338	0.00	29.893 
06:35	68.4	68.4	68.4	73	59.4	0	2	90	0.00	29.895 
06:40	68.4	68.4	68.4	72	59.0	0	1	90	0.00	29.896 
06:45	68.6	68.6	68.6	73	59.6	0	1	90	0.00	29.895 
06:50	68.6	68.6	68.6	73	59.6	0	0	---	0.00	29.896 
06:55	68.6	68.6	68.6	73	59.6	0	1	90	0.00	29.901 
07:00	68.8	68.8	68.8	73	59.8	0	1	90	0.00	29.898 
07:05	68.8	68.8	68.8	73	59.8	0	0	---	0.00	29.894 
07:10	68.8	68.8	68.8	72	59.4	0	0	---	0.00	29.898 
07:15	68.9	68.9	68.9	72	59.5	0	1	90	0.00	29.900 
07:20	69.1	69.1	69.1	72	59.7	0	0	---	0.00	29.899 
07:25	69.1	69.1	69.1	71	59.3	0	1	90	0.00	29.897 
07:30	69.3	69.3	69.3	70	59.1	0	1	90	0.00	29.895 
07:35	69.4	69.4	69.4	69	58.8	0	1	90	0.00	29.896 
07:40	69.6	69.6	69.6	68	58.6	0	3	90	0.00	29.896 
07:45	69.8	69.8	69.8	69	59.2	0	1	90	0.00	29.902 
07:50	69.8	69.8	69.8	68	58.7	1	2	90	0.00	29.910 
07:55	69.8	69.8	69.8	68	58.7	0	1	90	0.00	29.916 
08:00	69.9	69.9	69.9	68	58.8	0	2	68	0.00	29.921 
08:05	69.9	69.9	69.9	69	59.3	1	3	68	0.00	29.928 
08:10	69.3	69.3	69.3	73	60.3	1	3	248	0.00	29.931 
08:15	68.4	68.4	68.4	77	60.9	1	4	248	0.01	29.929 
08:20	67.6	67.6	67.6	81	61.6	0	4	248	0.02	29.932 
08:25	67.1	67.1	67.1	84	62.1	1	3	248	0.03	29.930 
08:30	66.6	66.6	66.6	85	61.9	0	1	180	0.00	29.931 
08:35	66.3	66.3	66.3	88	62.6	0	0	---	0.01	29.938 
08:40	66.1	66.1	66.1	90	63.1	0	0	---	0.00	29.940 
08:45	66.0	66.0	66.0	91	63.3	0	0	---	0.00	29.939 
08:50	66.1	66.1	66.1	91	63.4	0	1	180	0.01	29.938 
08:55	66.1	66.1	66.1	92	63.7	0	1	180	0.00	29.936 
09:00	66.3	66.3	66.3	92	63.9	0	0	---	0.00	29.934 
09:05	66.3	66.3	66.3	92	63.9	0	0	---	0.01	29.934 
09:10	66.3	66.3	66.3	93	64.2	0	1	180	0.01	29.934 
09:15	66.1	66.1	66.1	92	63.7	0	1	180	0.00	29.933 
09:20	66.1	66.1	66.1	93	64.0	0	1	180	0.00	29.932 
09:25	66.3	66.3	66.3	93	64.2	0	1	180	0.01	29.932 
09:30	66.1	66.1	66.1	93	64.0	0	1	180	0.01	29.932 
09:35	66.1	66.1	66.1	93	64.0	0	1	180	0.00	29.933 
09:40	66.0	66.0	66.0	93	63.9	0	2	180	0.01	29.932 
09:45	66.0	66.0	66.0	93	63.9	0	1	180	0.01	29.932 
09:50	66.0	66.0	66.0	94	64.2	0	1	180	0.00	29.936 
09:55	66.0	66.0	66.0	93	63.9	0	1	180	0.01	29.941 
10:00	66.0	66.0	66.0	94	64.2	0	0	---	0.00	29.945 
10:05	66.1	66.1	66.1	94	64.3	0	0	---	0.01	29.945 
10:10	66.1	66.1	66.1	94	64.3	0	0	---	0.01	29.946 
10:15	66.3	66.3	66.3	94	64.5	0	1	180	0.01	29.944 
10:20	66.3	66.3	66.3	94	64.5	0	1	180	0.00	29.942 
10:25	66.3	66.3	66.3	94	64.5	0	1	180	0.01	29.940 
10:30	66.4	66.4	66.4	94	64.6	0	1	180	0.00	29.942 
10:35	66.6	66.6	66.6	94	64.8	0	1	180	0.01	29.941 
10:40	66.8	66.8	66.8	95	65.3	0	1	180	0.00	29.941 
10:45	66.8	66.8	66.8	95	65.3	0	1	180	0.00	29.937 
10:50	67.1	67.1	67.1	95	65.6	0	1	180	0.00	29.933 
10:55	66.9	66.9	66.9	94	65.1	1	3	112	0.00	29.933 
11:00	66.9	66.9	66.9	95	65.4	0	2	112	0.00	29.936 
11:05	66.8	66.8	66.8	95	65.3	0	2	112	0.00	29.936 
11:10	66.6	66.6	66.6	94	64.8	1	2	112	0.00	29.932 
11:15	66.8	66.8	66.8	95	65.3	0	2	112	0.00	29.933 
11:20	66.9	66.9	66.9	95	65.4	0	2	112	0.00	29.934 
11:25	67.1	67.1	67.1	95	65.6	0	2	112	0.00	29.935 
11:30	67.3	67.3	67.3	95	65.8	0	1	112	0.00	29.934 
11:35	67.4	67.4	67.4	95	65.9	0	1	112	0.00	29.935 
11:40	67.4	67.4	67.4	94	65.6	1	3	112	0.00	29.938 
11:45	67.6	67.6	67.6	95	66.1	0	1	112	0.00	29.939 
11:50	67.6	67.6	67.6	94	65.8	0	2	112	0.00	29.935 
11:55	67.9	67.9	67.9	95	66.4	0	1	112	0.00	29.932 
12:00	67.9	67.9	67.9	95	66.4	0	2	112	0.00	29.932 
12:05	68.1	68.1	68.1	95	66.6	0	2	112	0.00	29.931 
12:10	68.1	68.1	68.1	94	66.3	0	1	112	0.00	29.931 
12:15	68.3	68.3	68.3	94	66.5	0	1	112	0.00	29.930 
12:20	68.3	68.3	68.3	94	66.5	0	1	112	0.00	29.931 
12:25	68.4	68.4	68.4	94	66.6	0	1	112	0.00	29.929 
12:30	68.8	68.8	68.8	94	67.0	0	1	112	0.00	29.930 
12:35	68.9	68.9	68.9	94	67.1	0	2	112	0.00	29.929 
12:40	69.4	69.4	69.4	94	67.6	1	2	112	0.00	29.925 
12:45	69.9	69.9	69.9	92	67.5	0	2	112	0.00	29.919 
12:50	70.3	70.3	70.3	90	67.2	0	2	112	0.00	29.914 
12:55	70.6	70.6	70.6	88	66.9	0	2	135	0.00	29.913 
13:00	71.1	71.1	71.1	87	67.0	0	1	135	0.00	29.914 
13:05	71.3	71.3	71.3	86	66.9	1	3	112	0.00	29.914 
13:10	71.8	71.8	71.8	85	67.0	0	2	112	0.00	29.911 
13:15	72.0	72.0	72.0	84	66.9	1	3	112	0.00	29.910 
13:20	72.3	72.3	72.3	84	67.2	0	1	112	0.00	29.909 
13:25	72.3	72.3	72.3	84	67.2	1	3	112	0.00	29.909 
13:30	72.1	72.1	72.1	84	67.0	1	3	90	0.00	29.904 
13:35	71.8	71.8	71.8	85	67.0	0	3	90	0.00	29.900 
13:40	71.6	71.6	71.6	85	66.8	0	1	90	0.00	29.897 
13:45	71.5	71.5	71.5	86	67.1	0	3	248	0.00	29.896 
13:50	71.5	71.5	71.5	85	66.7	1	3	248	0.00	29.896 
13:55	71.5	71.5	71.5	85	66.7	1	3	0	0.00	29.898 
14:00	71.8	71.8	71.8	86	67.4	0	2	270	0.00	29.896 
14:05	71.8	71.8	71.8	84	66.7	1	3	315	0.00	29.897 
14:10	71.8	71.8	71.8	84	66.7	0	2	315	0.00	29.897 
14:15	71.6	71.6	71.6	84	66.5	1	3	0	0.00	29.898 
14:20	71.8	71.8	71.8	85	67.0	0	1	225	0.00	29.899 
14:25	71.6	71.6	71.6	84	66.5	0	2	158	0.00	29.898 
14:30	71.8	71.8	71.8	85	67.0	0	1	225	0.00	29.897 
14:35	72.1	72.1	72.1	84	67.0	0	1	225	0.00	29.897 
14:40	72.5	72.5	72.5	83	67.0	1	3	225	0.00	29.893 
14:45	72.8	72.8	72.8	82	67.0	1	3	112	0.00	29.889 
14:50	72.8	72.8	72.8	80	66.3	1	3	90	0.00	29.893 
14:55	73.0	73.0	73.0	81	66.8	0	2	90	0.00	29.889 
15:00	73.5	73.5	73.5	80	66.9	1	3	90	0.00	29.880 
15:05	73.7	73.7	73.7	79	66.8	1	4	90	0.00	29.877 
15:10	73.9	73.9	73.9	79	67.0	1	6	315	0.00	29.877 
15:15	73.9	73.9	73.9	79	67.0	1	4	270	0.00	29.874 
15:20	73.7	73.7	73.7	79	66.8	1	4	270	0.00	29.867 
15:25	73.9	73.9	73.9	79	67.0	1	4	248	0.00	29.867 
15:30	73.7	73.7	73.7	78	66.4	1	3	248	0.00	29.869 
15:35	73.9	73.9	73.9	79	67.0	1	3	248	0.00	29.868 
15:40	73.9	73.9	73.9	80	67.3	1	4	270	0.00	29.867 
15:45	74.2	74.2	74.2	80	67.6	0	2	248	0.00	29.866 
15:50	74.9	74.9	74.9	78	67.6	1	3	248	0.00	29.868 
15:55	75.8	75.8	77.0	76	67.7	0	1	248	0.00	29.867 
16:00	76.1	76.1	77.6	73	66.8	0	2	248	0.00	29.864 
16:05	76.8	76.8	78.5	72	67.1	0	2	248	0.00	29.862 
16:10	77.2	77.2	79.0	69	66.2	1	3	248	0.00	29.858 
16:15	77.2	77.2	79.0	69	66.2	1	3	248	0.00	29.854 
16:20	77.2	77.2	79.0	69	66.2	1	3	270	0.00	29.852 
16:25	76.7	76.7	78.4	69	65.7	0	2	270	0.00	29.847 
16:30	76.5	76.5	78.2	69	65.6	0	2	270	0.00	29.846 
16:35	76.3	76.3	78.0	70	65.8	0	2	270	0.00	29.848 
16:40	76.3	76.3	77.9	71	66.2	0	1	270	0.00	29.846 
16:45	76.7	76.7	78.4	71	66.6	0	2	270	0.00	29.843 
16:50	76.8	76.8	78.6	69	65.8	0	2	270	0.00	29.841 
16:55	77.0	77.0	78.8	71	66.9	0	2	270	0.00	29.841 
17:00	77.4	77.4	79.3	70	66.8	0	2	248	0.00	29.840 
17:05	77.4	77.4	79.2	68	66.0	1	3	270	0.00	29.843 
17:10	77.4	77.4	79.2	69	66.4	0	2	270	0.00	29.843 
17:15	77.4	77.4	79.2	68	66.0	0	2	270	0.00	29.846 
17:20	77.2	77.2	79.0	69	66.2	0	3	270	0.00	29.847 
17:25	77.4	77.4	79.2	67	65.6	0	2	248	0.00	29.850 
17:30	77.4	77.4	79.2	67	65.6	0	1	248	0.00	29.849 
17:35	77.4	77.4	79.2	68	66.0	0	2	248	0.00	29.848 
17:40	77.2	77.2	79.0	67	65.4	0	1	248	0.00	29.849 
17:45	77.2	77.2	79.0	67	65.4	0	1	248	0.00	29.848 
17:50	77.4	77.4	79.2	67	65.6	0	1	248	0.00	29.847 
17:55	77.4	77.4	79.2	66	65.1	0	2	248	0.00	29.847 
18:00	77.2	77.2	79.0	65	64.5	0	1	248	0.00	29.847 
18:05	77.0	77.0	78.8	66	64.8	1	2	248	0.00	29.845 
18:10	76.8	76.8	78.6	67	65.0	1	2	248	0.00	29.844 
18:15	76.7	76.7	78.5	67	64.9	1	2	248	0.00	29.844 
18:20	76.7	76.7	78.5	67	64.9	0	2	248	0.00	29.845 
18:25	76.7	76.7	78.5	67	64.9	0	1	248	0.00	29.845 
18:30	76.7	76.7	78.5	68	65.3	0	1	248	0.00	29.846 
18:35	76.7	76.7	78.5	67	64.9	0	1	248	0.00	29.848 
18:40	76.5	76.5	78.3	68	65.1	0	1	248	0.00	29.847 
18:45	76.5	76.5	78.3	68	65.1	0	1	248	0.00	29.847 
18:50	76.5	76.5	78.2	69	65.6	0	1	248	0.00	29.848 
18:55	76.3	76.3	78.0	69	65.4	0	1	248	0.00	29.851 
19:00	76.3	76.3	78.0	69	65.4	0	1	248	0.00	29.849 
19:05	76.1	76.1	77.8	69	65.2	0	1	248	0.00	29.848 
19:10	76.1	76.1	77.8	70	65.6	0	1	248	0.00	29.848 
19:15	76.0	76.0	77.7	70	65.5	0	1	248	0.00	29.850 
19:20	76.0	76.0	77.7	70	65.5	0	1	248	0.00	29.856 
19:25	75.8	75.8	77.4	71	65.7	0	0	---	0.00	29.857 
19:30	75.6	75.6	77.2	71	65.5	0	0	---	0.00	29.859 
19:35	75.6	75.6	77.1	72	65.9	0	0	---	0.00	29.858 
19:40	75.6	75.6	77.2	71	65.5	0	1	248	0.00	29.859 
19:45	75.4	75.4	76.9	72	65.7	0	0	---	0.00	29.862 
19:50	75.4	75.4	76.9	72	65.7	0	0	---	0.00	29.862 
19:55	75.3	75.3	76.7	73	66.0	0	0	---	0.00	29.862 
20:00	75.3	75.3	76.7	73	66.0	0	0	---	0.00	29.863 
20:05	75.1	75.1	76.5	73	65.8	0	0	---	0.00	29.866 
20:10	75.1	75.1	76.5	73	65.8	0	0	---	0.00	29.870 
20:15	74.9	74.9	74.9	74	66.0	0	0	---	0.00	29.874 
20:20	74.7	74.7	74.7	74	65.8	0	0	---	0.00	29.874 
20:25	74.6	74.6	74.6	74	65.7	0	0	---	0.00	29.876 
20:30	74.4	74.4	74.4	74	65.6	0	0	---	0.00	29.875 
20:35	74.2	74.2	74.2	75	65.8	0	0	---	0.00	29.876 
20:40	74.0	74.0	74.0	75	65.6	0	0	---	0.00	29.878 
20:45	73.7	73.7	73.7	76	65.6	0	0	---	0.00	29.877 
20:50	73.3	73.3	73.3	77	65.6	0	0	---	0.00	29.878 
20:55	73.0	73.0	73.0	78	65.7	0	0	---	0.00	29.881 
21:00	72.7	72.7	72.7	79	65.8	0	0	---	0.00	29.880 
21:05	72.3	72.3	72.3	80	65.8	0	0	---	0.00	29.881 
21:10	72.0	72.0	72.0	81	65.8	0	0	---	0.00	29.883 
21:15	71.6	71.6	71.6	82	65.8	0	0	---	0.00	29.884 
21:20	71.5	71.5	71.5	83	66.1	0	0	---	0.00	29.885 
21:25	71.1	71.1	71.1	83	65.7	0	0	---	0.00	29.886 
21:30	70.9	70.9	70.9	84	65.8	0	0	---	0.00	29.887 
21:35	70.6	70.6	70.6	85	65.9	0	0	---	0.00	29.892 
21:40	70.4	70.4	70.4	86	66.0	0	0	---	0.00	29.894 
21:45	70.1	70.1	70.1	86	65.7	0	0	---	0.00	29.896 
21:50	69.9	69.9	69.9	87	65.8	0	0	---	0.00	29.897 
21:55	69.8	69.8	69.8	88	66.1	0	0	---	0.00	29.899 
22:00	69.4	69.4	69.4	88	65.7	0	0	---	0.00	29.898 
22:05	69.3	69.3	69.3	89	65.9	0	0	---	0.00	29.895 
22:10	69.1	69.1	69.1	89	65.7	0	0	---	0.00	29.897 
22:15	69.1	69.1	69.1	90	66.0	0	0	---	0.00	29.898 
22:20	68.8	68.8	68.8	90	65.7	0	0	---	0.00	29.899 
22:25	68.6	68.6	68.6	90	65.5	0	0	---	0.00	29.901 
22:30	68.6	68.6	68.6	91	65.9	0	0	---	0.00	29.901 
22:35	68.4	68.4	68.4	91	65.7	0	0	---	0.00	29.902 
22:40	68.3	68.3	68.3	92	65.9	0	0	---	0.00	29.901 
22:45	68.1	68.1	68.1	92	65.7	0	0	---	0.00	29.898 
22:50	67.9	67.9	67.9	92	65.5	0	0	---	0.00	29.899 
22:55	67.9	67.9	67.9	93	65.8	0	0	---	0.00	29.899 
23:00	67.8	67.8	67.8	93	65.7	0	0	---	0.00	29.899 
23:05	67.6	67.6	67.6	93	65.5	0	0	---	0.00	29.899 
23:10	67.6	67.6	67.6	94	65.8	0	0	---	0.00	29.900 
23:15	67.6	67.6	67.6	94	65.8	0	0	---	0.00	29.901 
23:20	67.6	67.6	67.6	94	65.8	0	0	---	0.00	29.898 
23:25	67.8	67.8	67.8	94	66.0	0	0	---	0.00	29.895 
23:30	67.8	67.8	67.8	94	66.0	0	0	---	0.00	29.894 
23:35	67.8	67.8	67.8	94	66.0	0	0	---	0.00	29.895 
23:40	67.6	67.6	67.6	94	65.8	0	0	---	0.00	29.893 
23:45	67.6	67.6	67.6	95	66.1	0	0	---	0.00	29.891 
23:50	67.6	67.6	67.6	94	65.8	0	0	---	0.00	29.889 
23:55	67.6	67.6	67.6	95	66.1	0	0	---	0.00	29.885 

CoCoRaHS
IN-AL-39
A2 Web Hosting
Creative Commons License
GoDaddy
Look for:

loaded 2017-10-20 19:36:05 • last modified 2010-11-18 10:43:29
Privacy PolicyDisclaimer
• wx.awcolley.com is powered by PmWiki v.2002016 •
• all content (unless otherwise noted) © 2017 A W Colley